Time;durP1;ratioP1;P1;durP2;ratioP2;P2;SDS_P1;SDS_P2;PMS_P1;PMS_P2;Temp;Humidity;BMP_temperature;BMP_pressure;BME280_temperature;BME280_humidity;BME280_pressure;Samples;Min_cycle;Max_cycle;Signal;HPM_P1;HPM_P2
2022/07/20 00:00:44;;;;;;;;;;;;;;;;;;5033796;28;7001;-86
2022/07/20 00:03:12;;;;;;;;;;;;;;;;;;5033802;28;8765;-87
2022/07/20 00:05:38;;;;;;;;;;;;;;;;;;5033918;28;7190;-87
2022/07/20 00:08:04;;;;;;;;;;;;;;;;;;5033637;28;7222;-87
2022/07/20 00:13:14;;;;;;;;;;;;;;;;;;5035028;28;6961;-87
2022/07/20 00:15:40;;;;;;;;;;;;;;;;;;5034170;28;8539;-87
2022/07/20 00:18:06;;;;;;;;;;;;;;;;;;5033959;28;7269;-88
2022/07/20 00:20:31;;;;;;;;;;;;;;;;;;5033464;28;7231;-87
2022/07/20 00:22:58;;;;;;;;;;;;;;;;;;5033637;28;8432;-87
2022/07/20 00:25:24;;;;;;;;;;;;;;;;;;5034134;28;9062;-86
2022/07/20 00:27:50;;;;;;;;;;;;;;;;;;5033960;28;7163;-85
2022/07/20 00:30:16;;;;;;;;;;;;;;;;;;5033561;28;8405;-87
2022/07/20 00:32:42;;;;;;;;;;;;;;;;;;5033511;28;8402;-87
2022/07/20 00:35:09;;;;;;;;;;;;;;;;;;5033325;28;8540;-87
2022/07/20 00:37:34;;;;;;;;;;;;;;;;;;5033166;28;8355;-86
2022/07/20 00:40:01;;;;;;;;;;;;;;;;;;5033543;28;8401;-87
2022/07/20 00:42:27;;;;;;;;;;;;;;;;;;5033601;28;8749;-87
2022/07/20 00:44:52;;;;;;;;;;;;;;;;;;5033842;28;7167;-85
2022/07/20 00:47:18;;;;;;;;;;;;;;;;;;5033786;28;8409;-87
2022/07/20 00:49:43;;;;;;;;;;;;;;;;;;5034954;28;7147;-87
2022/07/20 00:52:09;;;;;;;;;;;;;;;;;;5037574;28;7205;-86
2022/07/20 00:54:36;;;;;;;;;;;;;;;;;;5037420;28;8684;-86
2022/07/20 00:57:02;;;;;;;;;;;;;;;;;;5037423;28;8453;-86
2022/07/20 00:59:28;;;;;;;;;;;;;;;;;;5038297;28;7069;-89
2022/07/20 01:01:54;;;;;;;;;;;;;;;;;;5038923;28;7006;-87
2022/07/20 01:04:19;;;;;;;;;;;;;;;;;;5039139;28;8379;-82
2022/07/20 01:06:45;;;;;;;;;;;;;;;;;;5044584;28;8489;-86
2022/07/20 01:09:11;;;;;;;;;;;;;;;;;;5038587;28;7029;-86
2022/07/20 01:11:37;;;;;;;;;;;;;;;;;;5036957;28;8891;-87
2022/07/20 01:14:04;;;;;;;;;;;;;;;;;;5036973;28;8478;-88
2022/07/20 01:16:29;;;;;;;;;;;;;;;;;;5037464;28;7436;-87
2022/07/20 01:18:55;;;;;;;;;;;;;;;;;;5036810;28;8451;-87
2022/07/20 01:21:20;;;;;;;;;;;;;;;;;;5036786;28;8423;-87
2022/07/20 01:23:46;;;;;;;;;;;;;;;;;;5036764;28;7163;-87
2022/07/20 01:26:11;;;;;;;;;;;;;;;;;;5037057;28;7038;-86
2022/07/20 01:28:37;;;;;;;;;;;;;;;;;;5036980;28;7073;-87
2022/07/20 01:31:02;;;;;;;;;;;;;;;;;;5036681;28;8699;-86
2022/07/20 01:33:28;;;;;;;;;;;;;;;;;;5036523;28;7290;-87
2022/07/20 01:35:54;;;;;;;;;;;;;;;;;;5037093;28;8621;-83
2022/07/20 01:38:19;;;;;;;;;;;;;;;;;;5036366;28;7170;-86
2022/07/20 01:40:45;;;;;;;;;;;;;;;;;;5036371;28;8462;-87
2022/07/20 01:43:10;;;;;;;;;;;;;;;;;;5036480;28;7054;-86
2022/07/20 01:45:36;;;;;;;;;;;;;;;;;;5036263;28;8519;-86
2022/07/20 01:48:01;;;;;;;;;;;;;;;;;;5035709;28;8545;-86
2022/07/20 01:50:27;;;;;;;;;;;;;;;;;;5036203;28;7145;-86
2022/07/20 01:52:52;;;;;;;;;;;;;;;;;;5036010;28;8676;-87
2022/07/20 01:55:18;;;;;;;;;;;;;;;;;;5037703;28;7631;-87
2022/07/20 01:57:43;;;;;;;;;;;;;;;;;;5036147;28;8545;-87
2022/07/20 02:00:11;;;;;;;;;;;;;;;;;;5036034;28;8414;-86
2022/07/20 02:02:36;;;;;;;;;;;;;;;;;;5036098;28;8579;-88
2022/07/20 02:05:02;;;;;;;;;;;;;;;;;;5036767;28;8460;-87
2022/07/20 02:07:27;;;;;;;;;;;;;;;;;;5036971;28;8738;-88
2022/07/20 02:09:53;;;;;;;;;;;;;;;;;;5037051;28;8708;-88
2022/07/20 02:12:19;;;;;;;;;;;;;;;;;;5036307;28;8424;-89
2022/07/20 02:14:45;;;;;;;;;;;;;;;;;;5036787;28;7037;-86
2022/07/20 02:17:10;;;;;;;;;;;;;;;;;;5036526;28;8406;-87
2022/07/20 02:19:36;;;;;;;;;;;;;;;;;;5036155;28;7148;-88
2022/07/20 02:22:01;;;;;;;;;;;;;;;;;;5036447;28;8770;-84
2022/07/20 02:24:27;;;;;;;;;;;;;;;;;;5035819;28;7149;-86
2022/07/20 02:26:52;;;;;;;;;;;;;;;;;;5036649;28;7374;-84
2022/07/20 02:29:18;;;;;;;;;;;;;;;;;;5035661;28;7053;-87
2022/07/20 02:31:43;;;;;;;;;;;;;;;;;;5035849;28;8499;-86
2022/07/20 02:34:10;;;;;;;;;;;;;;;;;;5035787;28;7030;-85
2022/07/20 02:36:35;;;;;;;;;;;;;;;;;;5035303;28;7182;-87
2022/07/20 02:39:01;;;;;;;;;;;;;;;;;;5035956;28;7489;-86
2022/07/20 02:41:27;;;;;;;;;;;;;;;;;;5036187;28;7430;-87
2022/07/20 02:43:52;;;;;;;;;;;;;;;;;;5036371;28;7146;-84
2022/07/20 02:46:18;;;;;;;;;;;;;;;;;;5035218;28;8490;-86
2022/07/20 02:48:43;;;;;;;;;;;;;;;;;;5035258;28;8395;-86
2022/07/20 02:51:09;;;;;;;;;;;;;;;;;;5035100;28;7168;-86
2022/07/20 02:53:34;;;;;;;;;;;;;;;;;;5240131;23;8489;-84
2022/07/20 02:56:00;;;;;;;;;;;;;;;;;;5054991;28;8593;-84
2022/07/20 02:58:26;;;;;;;;;;;;;;;;;;5055512;28;8511;-85
2022/07/20 03:00:51;;;;;;;;;;;;;;;;;;5054945;28;8435;-83
2022/07/20 03:03:17;;;;;;;;;;;;;;;;;;5055379;28;7049;-84
2022/07/20 03:05:42;;;;;;;;;;;;;;;;;;5055140;28;8611;-82
2022/07/20 03:08:08;;;;;;;;;;;;;;;;;;5054963;28;8367;-83
2022/07/20 03:10:35;;;;;;;;;;;;;;;;;;5055075;28;8478;-85
2022/07/20 03:13:01;;;;;;;;;;;;;;;;;;5055211;28;8749;-84
2022/07/20 03:15:26;;;;;;;;;;;;;;;;;;5054727;28;8662;-84
2022/07/20 03:17:53;;;;;;;;;;;;;;;;;;5054664;28;7181;-84
2022/07/20 03:20:20;;;;;;;;;;;;;;;;;;5054887;28;8344;-83
2022/07/20 03:22:46;;;;;;;;;;;;;;;;;;5054502;28;7023;-83
2022/07/20 03:25:12;;;;;;;;;;;;;;;;;;5055332;28;8780;-83
2022/07/20 03:27:38;;;;;;;;;;;;;;;;;;5055151;28;8674;-83
2022/07/20 03:30:04;;;;;;;;;;;;;;;;;;5054440;28;7192;-82
2022/07/20 03:32:31;;;;;;;;;;;;;;;;;;5054665;28;7040;-83
2022/07/20 03:34:57;;;;;;;;;;;;;;;;;;5054252;28;8519;-83
2022/07/20 03:37:22;;;;;;;;;;;;;;;;;;5054876;28;7205;-83
2022/07/20 03:39:48;;;;;;;;;;;;;;;;;;5054112;28;8636;-84
2022/07/20 03:42:14;;;;;;;;;;;;;;;;;;5054171;28;8440;-84
2022/07/20 03:44:39;;;;;;;;;;;;;;;;;;5054386;28;8720;-82
2022/07/20 03:47:05;;;;;;;;;;;;;;;;;;5054085;28;8682;-83
2022/07/20 03:49:30;;;;;;;;;;;;;;;;;;5054593;28;7016;-83
2022/07/20 03:51:56;;;;;;;;;;;;;;;;;;5054050;28;7162;-85
2022/07/20 03:54:22;;;;;;;;;;;;;;;;;;5053849;28;7132;-84
2022/07/20 03:56:47;;;;;;;;;;;;;;;;;;5054636;28;7073;-83
2022/07/20 03:59:13;;;;;;;;;;;;;;;;;;5054239;28;6802;-83
2022/07/20 04:01:39;;;;;;;;;;;;;;;;;;5053837;28;8604;-83
2022/07/20 04:04:05;;;;;;;;;;;;;;;;;;5054064;28;7032;-83
2022/07/20 04:06:31;;;;;;;;;;;;;;;;;;5054353;28;8352;-83
2022/07/20 04:08:56;;;;;;;;;;;;;;;;;;5053971;28;8883;-84
2022/07/20 04:11:22;;;;;;;;;;;;;;;;;;5054485;28;7019;-83
2022/07/20 04:13:48;;;;;;;;;;;;;;;;;;5053841;28;8772;-84
2022/07/20 04:16:13;;;;;;;;;;;;;;;;;;5053880;28;7493;-83
2022/07/20 04:18:39;;;;;;;;;;;;;;;;;;5053491;28;7222;-85
2022/07/20 04:21:05;;;;;;;;;;;;;;;;;;5054731;28;7402;-85
2022/07/20 04:23:30;;;;;;;;;;;;;;;;;;5052877;28;8590;-82
2022/07/20 04:25:56;;;;;;;;;;;;;;;;;;5047836;28;8441;-83
2022/07/20 04:28:22;;;;;;;;;;;;;;;;;;5044690;28;7167;-84
2022/07/20 04:30:48;;;;;;;;;;;;;;;;;;5051541;28;7111;-84
2022/07/20 04:33:13;;;;;;;;;;;;;;;;;;5043587;28;8505;-84
2022/07/20 04:35:39;;;;;;;;;;;;;;;;;;5051768;28;8821;-83
2022/07/20 04:38:04;;;;;;;;;;;;;;;;;;5052961;28;8582;-83
2022/07/20 04:40:30;;;;;;;;;;;;;;;;;;5051226;28;7234;-84
2022/07/20 04:42:56;;;;;;;;;;;;;;;;;;5041813;28;7189;-87
2022/07/20 04:45:21;;;;;;;;;;;;;;;;;;5045364;28;7175;-83
2022/07/20 04:47:47;;;;;;;;;;;;;;;;;;5043842;28;8410;-82
2022/07/20 04:50:13;;;;;;;;;;;;;;;;;;5044091;28;6811;-84
2022/07/20 04:52:39;;;;;;;;;;;;;;;;;;5052656;28;8311;-83
2022/07/20 04:55:06;;;;;;;;;;;;;;;;;;5051666;28;8433;-83
2022/07/20 04:57:31;;;;;;;;;;;;;;;;;;5041420;28;8634;-83
2022/07/20 04:59:57;;;;;;;;;;;;;;;;;;5043893;28;7167;-83
2022/07/20 05:02:22;;;;;;;;;;;;;;;;;;5042609;28;7008;-82
2022/07/20 05:04:48;;;;;;;;;;;;;;;;;;5051319;28;8839;-84
2022/07/20 05:07:14;;;;;;;;;;;;;;;;;;5043691;28;8474;-84
2022/07/20 05:09:40;;;;;;;;;;;;;;;;;;5042062;28;9110;-86
2022/07/20 05:12:05;;;;;;;;;;;;;;;;;;5052954;28;8396;-82
2022/07/20 05:14:31;;;;;;;;;;;;;;;;;;5053554;28;8319;-86
2022/07/20 05:16:57;;;;;;;;;;;;;;;;;;5053828;28;7058;-85
2022/07/20 05:19:22;;;;;;;;;;;;;;;;;;5053720;28;8748;-83
2022/07/20 05:21:48;;;;;;;;;;;;;;;;;;5053019;28;7218;-75
2022/07/20 05:24:13;;;;;;;;;;;;;;;;;;5047984;28;8405;-82
2022/07/20 05:26:39;;;;;;;;;;;;;;;;;;5051617;28;8525;-83
2022/07/20 05:29:04;;;;;;;;;;;;;;;;;;5050750;28;8414;-84
2022/07/20 05:31:30;;;;;;;;;;;;;;;;;;5051431;28;8979;-83
2022/07/20 05:33:56;;;;;;;;;;;;;;;;;;5051041;28;9438;-83
2022/07/20 05:36:21;;;;;;;;;;;;;;;;;;5052508;28;8407;-83
2022/07/20 05:38:47;;;;;;;;;;;;;;;;;;5055152;28;7163;-83
2022/07/20 05:41:12;;;;;;;;;;;;;;;;;;5056066;28;8458;-82
2022/07/20 05:43:37;;;;;;;;;;;;;;;;;;5053404;28;7168;-84
2022/07/20 05:46:03;;;;;;;;;;;;;;;;;;5055109;28;8325;-80
2022/07/20 05:48:30;;;;;;;;;;;;;;;;;;5054902;28;7525;-84
2022/07/20 05:50:55;;;;;;;;;;;;;;;;;;5055715;28;8501;-81
2022/07/20 05:53:21;;;;;;;;;;;;;;;;;;5058985;28;8367;-78
2022/07/20 05:55:46;;;;;;;;;;;;;;;;;;5060229;28;8418;-79
2022/07/20 05:58:12;;;;;;;;;;;;;;;;;;5058058;28;6807;-83
2022/07/20 06:00:38;;;;;;;;;;;;;;;;;;5056345;28;9372;-80
2022/07/20 06:03:04;;;;;;;;;;;;;;;;;;5054765;28;7178;-83
2022/07/20 06:05:29;;;;;;;;;;;;;;;;;;5056792;28;8807;-79
2022/07/20 06:07:56;;;;;;;;;;;;;;;;;;5056296;28;8749;-84
2022/07/20 06:10:22;;;;;;;;;;;;;;;;;;5055340;28;8765;-83
2022/07/20 06:12:47;;;;;;;;;;;;;;;;;;5055308;28;8813;-83
2022/07/20 06:15:13;;;;;;;;;;;;;;;;;;5054394;28;8400;-84
2022/07/20 06:17:40;;;;;;;;;;;;;;;;;;5054888;28;7210;-85
2022/07/20 06:20:10;;;;;;;;;;;;;;;;;;5055290;28;7206;-85
2022/07/20 06:22:40;;;;;;;;;;;;;;;;;;5055043;28;8439;-86
2022/07/20 06:25:09;;;;;;;;;;;;;;;;;;5053974;28;8837;-84
2022/07/20 06:27:36;;;;;;;;;;;;;;;;;;5054550;28;8556;-82
2022/07/20 06:30:02;;;;;;;;;;;;;;;;;;5055299;28;7097;-86
2022/07/20 06:32:27;;;;;;;;;;;;;;;;;;5054842;28;8700;-85
2022/07/20 06:34:53;;;;;;;;;;;;;;;;;;5054695;28;8301;-85
2022/07/20 06:37:19;;;;;;;;;;;;;;;;;;5054503;28;7032;-84
2022/07/20 06:39:44;;;;;;;;;;;;;;;;;;5054724;28;8773;-85
2022/07/20 06:42:10;;;;;;;;;;;;;;;;;;5049345;28;8459;-84
2022/07/20 06:44:36;;;;;;;;;;;;;;;;;;5036251;28;8429;-82
2022/07/20 06:47:02;;;;;;;;;;;;;;;;;;5036620;28;8367;-84
2022/07/20 06:49:28;;;;;;;;;;;;;;;;;;5054563;28;8765;-84
2022/07/20 06:51:54;;;;;;;;;;;;;;;;;;5054698;28;8796;-84
2022/07/20 06:54:19;;;;;;;;;;;;;;;;;;5053764;28;8825;-86
2022/07/20 06:56:45;;;;;;;;;;;;;;;;;;5054146;28;8751;-84
2022/07/20 06:59:10;;;;;;;;;;;;;;;;;;5054064;28;6884;-85
2022/07/20 07:01:36;;;;;;;;;;;;;;;;;;5054346;28;8502;-84
2022/07/20 07:04:01;;;;;;;;;;;;;;;;;;5053769;28;9427;-85
2022/07/20 07:06:28;;;;;;;;;;;;;;;;;;5054954;28;8790;-86
2022/07/20 07:08:54;;;;;;;;;;;;;;;;;;5052352;28;8408;-85
2022/07/20 07:11:20;;;;;;;;;;;;;;;;;;5034411;28;8460;-85
2022/07/20 07:13:45;;;;;;;;;;;;;;;;;;5047298;28;8839;-84
2022/07/20 07:16:11;;;;;;;;;;;;;;;;;;5054816;28;8477;-85
2022/07/20 07:18:37;;;;;;;;;;;;;;;;;;5054021;28;8768;-83
2022/07/20 07:21:03;;;;;;;;;;;;;;;;;;5053725;28;8017;-86
2022/07/20 07:23:28;;;;;;;;;;;;;;;;;;5052808;28;8399;-86
2022/07/20 07:25:54;;;;;;;;;;;;;;;;;;5054182;28;8346;-85
2022/07/20 07:28:19;;;;;;;;;;;;;;;;;;5053020;28;7951;-83
2022/07/20 07:30:45;;;;;;;;;;;;;;;;;;5054139;28;8495;-85
2022/07/20 07:33:10;;;;;;;;;;;;;;;;;;5053827;28;7095;-82
2022/07/20 07:35:36;;;;;;;;;;;;;;;;;;5054865;28;8415;-84
2022/07/20 07:38:02;;;;;;;;;;;;;;;;;;5054950;28;8469;-86
2022/07/20 07:40:27;;;;;;;;;;;;;;;;;;5054350;28;8549;-87
2022/07/20 07:42:53;;;;;;;;;;;;;;;;;;5058687;28;7226;-82
2022/07/20 07:45:18;;;;;;;;;;;;;;;;;;5053483;28;7279;-86
2022/07/20 07:47:46;;;;;;;;;;;;;;;;;;5054052;28;7114;-84
2022/07/20 07:50:12;;;;;;;;;;;;;;;;;;5053389;28;9011;-85
2022/07/20 07:52:38;;;;;;;;;;;;;;;;;;5052924;28;8576;-85
2022/07/20 07:55:04;;;;;;;;;;;;;;;;;;5052843;28;7131;-85
2022/07/20 07:57:29;;;;;;;;;;;;;;;;;;5053617;28;9178;-84
2022/07/20 07:59:55;;;;;;;;;;;;;;;;;;5052891;28;8469;-83
2022/07/20 08:02:20;;;;;;;;;;;;;;;;;;5052869;28;8737;-83
2022/07/20 08:04:46;;;;;;;;;;;;;;;;;;5052693;28;7098;-83
2022/07/20 08:07:11;;;;;;;;;;;;;;;;;;5052964;28;8378;-84
2022/07/20 08:09:37;;;;;;;;;;;;;;;;;;5053424;28;8530;-82
2022/07/20 08:12:03;;;;;;;;;;;;;;;;;;5052900;28;7153;-83
2022/07/20 08:14:29;;;;;;;;;;;;;;;;;;5052352;28;8695;-84
2022/07/20 08:16:54;;;;;;;;;;;;;;;;;;5052783;28;7192;-84
2022/07/20 08:19:20;;;;;;;;;;;;;;;;;;5052607;28;8565;-87
2022/07/20 08:21:45;;;;;;;;;;;;;;;;;;5052657;28;8614;-86
2022/07/20 08:24:12;;;;;;;;;;;;;;;;;;5052274;28;8156;-85
2022/07/20 08:26:38;;;;;;;;;;;;;;;;;;5052579;28;9181;-84
2022/07/20 08:29:03;;;;;;;;;;;;;;;;;;5052566;28;8877;-83
2022/07/20 08:31:28;;;;;;;;;;;;;;;;;;5052518;28;8590;-84
2022/07/20 08:33:54;;;;;;;;;;;;;;;;;;5048078;28;8480;-84
2022/07/20 08:36:19;;;;;;;;;;;;;;;;;;5032208;28;8676;-86
2022/07/20 08:38:45;;;;;;;;;;;;;;;;;;5032719;28;7254;-86
2022/07/20 08:41:11;;;;;;;;;;;;;;;;;;5032018;28;8516;-83
2022/07/20 08:43:36;;;;;;;;;;;;;;;;;;5031797;28;7218;-81
2022/07/20 08:46:02;;;;;;;;;;;;;;;;;;5032190;28;7145;-82
2022/07/20 08:48:27;;;;;;;;;;;;;;;;;;5035569;28;8689;-82
2022/07/20 08:50:54;;;;;;;;;;;;;;;;;;5036092;28;8589;-83
2022/07/20 08:53:19;;;;;;;;;;;;;;;;;;5032625;28;8814;-82
2022/07/20 08:55:46;;;;;;;;;;;;;;;;;;5032905;28;7299;-76
2022/07/20 08:58:12;;;;;;;;;;;;;;;;;;5032962;28;8857;-84
2022/07/20 09:00:38;;;;;;;;;;;;;;;;;;5043756;28;8522;-75
2022/07/20 09:03:04;;;;;;;;;;;;;;;;;;5054859;28;8660;-78
2022/07/20 09:05:32;;;;;;;;;;;;;;;;;;5052607;28;8574;-84
2022/07/20 09:07:58;;;;;;;;;;;;;;;;;;5058167;28;8699;-76
2022/07/20 09:10:29;;;;;;;;;;;;;;;;;;5045489;28;8613;-75
2022/07/20 09:12:57;;;;;;;;;;;;;;;;;;5043177;28;8532;-75
2022/07/20 09:15:26;;;;;;;;;;;;;;;;;;5050897;28;8533;-76
2022/07/20 09:18:02;;;;;;;;;;;;;;;;;;5060665;28;8927;-83
2022/07/20 09:20:29;;;;;;;;;;;;;;;;;;5064706;28;8561;-76
2022/07/20 09:23:00;;;;;;;;;;;;;;;;;;5062769;28;8880;-84
2022/07/20 09:25:26;;;;;;;;;;;;;;;;;;5059858;28;7134;-80
2022/07/20 09:27:51;;;;;;;;;;;;;;;;;;5067382;28;7241;-76
2022/07/20 09:30:17;;;;;;;;;;;;;;;;;;5068025;28;8686;-78
2022/07/20 09:32:52;;;;;;;;;;;;;;;;;;5067006;28;8710;-80
2022/07/20 09:35:19;;;;;;;;;;;;;;;;;;5066984;28;8719;-77
2022/07/20 09:37:45;;;;;;;;;;;;;;;;;;5067839;28;8495;-77
2022/07/20 09:40:10;;;;;;;;;;;;;;;;;;5067961;28;7257;-76
2022/07/20 09:42:46;;;;;;;;;;;;;;;;;;5067941;28;8507;-75
2022/07/20 09:45:38;;;;;;;;;;;;;;;;;;5067784;28;8839;-77
2022/07/20 09:48:04;;;;;;;;;;;;;;;;;;5064967;28;8821;-76
2022/07/20 09:50:30;;;;;;;;;;;;;;;;;;5047106;28;6980;-78
2022/07/20 09:52:57;;;;;;;;;;;;;;;;;;5048964;28;8907;-77
2022/07/20 09:55:22;;;;;;;;;;;;;;;;;;5048528;28;8548;-77
2022/07/20 09:57:51;;;;;;;;;;;;;;;;;;5048972;28;8487;-77
2022/07/20 10:00:18;;;;;;;;;;;;;;;;;;5050707;28;8937;-77
2022/07/20 10:02:46;;;;;;;;;;;;;;;;;;5059032;28;8585;-77
2022/07/20 10:05:12;;;;;;;;;;;;;;;;;;5057190;28;7231;-77
2022/07/20 10:07:38;;;;;;;;;;;;;;;;;;5068101;28;8478;-77
2022/07/20 10:10:04;;;;;;;;;;;;;;;;;;5067337;28;7138;-76
2022/07/20 10:12:30;;;;;;;;;;;;;;;;;;5065316;28;8509;-77
2022/07/20 10:14:59;;;;;;;;;;;;;;;;;;5065438;28;8618;-80
2022/07/20 10:17:25;;;;;;;;;;;;;;;;;;5053568;28;8607;-84
2022/07/20 10:19:50;;;;;;;;;;;;;;;;;;5035584;28;8538;-84
2022/07/20 10:22:17;;;;;;;;;;;;;;;;;;5035273;28;8543;-76
2022/07/20 10:24:47;;;;;;;;;;;;;;;;;;5040214;28;8907;-76
2022/07/20 10:27:13;;;;;;;;;;;;;;;;;;5055001;28;9267;-84
2022/07/20 10:29:41;;;;;;;;;;;;;;;;;;5054890;28;9024;-84
2022/07/20 10:32:10;;;;;;;;;;;;;;;;;;5055920;28;8852;-81
2022/07/20 10:34:35;;;;;;;;;;;;;;;;;;5055765;28;7487;-84
2022/07/20 10:37:20;;;;;;;;;;;;;;;;;;5054587;28;7282;-85
2022/07/20 10:39:46;;;;;;;;;;;;;;;;;;5054949;28;8630;-85
2022/07/20 10:42:24;;;;;;;;;;;;;;;;;;5054653;28;8925;-77
2022/07/20 10:44:50;;;;;;;;;;;;;;;;;;5054085;28;7154;-79
2022/07/20 10:47:34;;;;;;;;;;;;;;;;;;5055137;28;7186;-84
2022/07/20 10:50:02;;;;;;;;;;;;;;;;;;5056869;28;8607;-86
2022/07/20 10:52:33;;;;;;;;;;;;;;;;;;5075725;28;7146;-87
2022/07/20 10:54:58;;;;;;;;;;;;;;;;;;5074971;28;7371;-85
2022/07/20 10:57:24;;;;;;;;;;;;;;;;;;5074836;28;8629;-87
2022/07/20 11:00:00;;;;;;;;;;;;;;;;;;5071679;28;8673;-85
2022/07/20 11:02:25;;;;;;;;;;;;;;;;;;5071014;28;8451;-84
2022/07/20 11:04:51;;;;;;;;;;;;;;;;;;5070576;28;7534;-86
2022/07/20 11:07:31;;;;;;;;;;;;;;;;;;5070830;28;8528;-87
2022/07/20 11:09:57;;;;;;;;;;;;;;;;;;5070630;28;8497;-85
2022/07/20 11:12:29;;;;;;;;;;;;;;;;;;5053967;28;7389;-87
2022/07/20 11:14:56;;;;;;;;;;;;;;;;;;5054288;28;7868;-84
2022/07/20 11:17:22;;;;;;;;;;;;;;;;;;5075436;28;8510;-87
2022/07/20 11:19:49;;;;;;;;;;;;;;;;;;5075430;28;8532;-84
2022/07/20 11:22:15;;;;;;;;;;;;;;;;;;5078672;28;7278;-86
2022/07/20 11:24:40;;;;;;;;;;;;;;;;;;5077873;28;8487;-84
2022/07/20 11:27:16;;;;;;;;;;;;;;;;;;5076372;28;8784;-85
2022/07/20 11:29:51;;;;;;;;;;;;;;;;;;5074231;28;8608;-91
2022/07/20 11:32:17;;;;;;;;;;;;;;;;;;5075367;28;8554;-84
2022/07/20 11:34:47;;;;;;;;;;;;;;;;;;5080683;28;8853;-83
2022/07/20 11:37:18;;;;;;;;;;;;;;;;;;5081968;28;9002;-84
2022/07/20 11:39:45;;;;;;;;;;;;;;;;;;5082627;28;8516;-82
2022/07/20 11:42:15;;;;;;;;;;;;;;;;;;5082356;28;8933;-83
2022/07/20 11:44:42;;;;;;;;;;;;;;;;;;5078268;28;8624;-83
2022/07/20 11:47:08;;;;;;;;;;;;;;;;;;5045709;28;8535;-82
2022/07/20 11:49:34;;;;;;;;;;;;;;;;;;5045742;28;8451;-84
2022/07/20 11:52:03;;;;;;;;;;;;;;;;;;5045872;28;7125;-83
2022/07/20 11:54:35;;;;;;;;;;;;;;;;;;5048178;28;8835;-83
2022/07/20 11:57:03;;;;;;;;;;;;;;;;;;5049257;28;7184;-83
2022/07/20 11:59:28;;;;;;;;;;;;;;;;;;5045760;28;8667;-82
2022/07/20 12:01:55;;;;;;;;;;;;;;;;;;5045530;28;8792;-82
2022/07/20 12:04:22;;;;;;;;;;;;;;;;;;5044787;28;8486;-82
2022/07/20 12:06:50;;;;;;;;;;;;;;;;;;5058830;28;8712;-83
2022/07/20 12:09:18;;;;;;;;;;;;;;;;;;5055130;28;8946;-82
2022/07/20 12:11:53;;;;;;;;;;;;;;;;;;5054133;28;8531;-83
2022/07/20 12:14:44;;;;;;;;;;;;;;;;;;5047224;28;7277;-82
2022/07/20 12:17:11;;;;;;;;;;;;;;;;;;5078378;28;8578;-82
2022/07/20 12:19:38;;;;;;;;;;;;;;;;;;5063504;28;7719;-83
2022/07/20 12:22:04;;;;;;;;;;;;;;;;;;5064666;28;8938;-83
2022/07/20 12:24:30;;;;;;;;;;;;;;;;;;5063859;28;8536;-82
2022/07/20 12:27:05;;;;;;;;;;;;;;;;;;5061949;28;7112;-83
2022/07/20 12:29:30;;;;;;;;;;;;;;;;;;5045048;28;8599;-83
2022/07/20 12:31:56;;;;;;;;;;;;;;;;;;5044981;28;8510;-83
2022/07/20 12:34:22;;;;;;;;;;;;;;;;;;5044655;28;8535;-83
2022/07/20 12:36:49;;;;;;;;;;;;;;;;;;5048314;28;9444;-82
2022/07/20 12:39:34;;;;;;;;;;;;;;;;;;5063935;28;8581;-83
2022/07/20 12:42:23;;;;;;;;;;;;;;;;;;5053150;28;8497;-82
2022/07/20 12:44:57;;;;;;;;;;;;;;;;;;5064177;28;8665;-82
2022/07/20 12:47:23;;;;;;;;;;;;;;;;;;5068466;28;8685;-84
2022/07/20 12:49:48;;;;;;;;;;;;;;;;;;5062223;28;7152;-85
2022/07/20 12:52:13;;;;;;;;;;;;;;;;;;5058536;28;8479;-87
2022/07/20 12:54:39;;;;;;;;;;;;;;;;;;5064848;28;8498;-84
2022/07/20 12:57:04;;;;;;;;;;;;;;;;;;5060769;28;8465;-83
2022/07/20 12:59:30;;;;;;;;;;;;;;;;;;5066474;28;9542;-82
2022/07/20 13:01:56;;;;;;;;;;;;;;;;;;5067900;28;8572;-84
2022/07/20 13:04:23;;;;;;;;;;;;;;;;;;5063842;28;7253;-83
2022/07/20 13:06:50;;;;;;;;;;;;;;;;;;5048337;28;8453;-83
2022/07/20 13:09:18;;;;;;;;;;;;;;;;;;5048436;28;8545;-83
2022/07/20 13:11:45;;;;;;;;;;;;;;;;;;5068405;28;7298;-83
2022/07/20 13:14:12;;;;;;;;;;;;;;;;;;5056400;28;8595;-85
2022/07/20 13:16:38;;;;;;;;;;;;;;;;;;5056887;28;9040;-85
2022/07/20 13:19:03;;;;;;;;;;;;;;;;;;5057480;28;8733;-83
2022/07/20 13:21:29;;;;;;;;;;;;;;;;;;5059655;28;7279;-85
2022/07/20 13:23:54;;;;;;;;;;;;;;;;;;5056075;28;8798;-81
2022/07/20 13:26:20;;;;;;;;;;;;;;;;;;5056787;28;9027;-84
2022/07/20 13:28:45;;;;;;;;;;;;;;;;;;5056315;28;8596;-84
2022/07/20 13:31:11;;;;;;;;;;;;;;;;;;5055552;28;8519;-82
2022/07/20 13:33:37;;;;;;;;;;;;;;;;;;5055444;28;8525;-84
2022/07/20 13:36:03;;;;;;;;;;;;;;;;;;5056093;28;8729;-84
2022/07/20 13:38:28;;;;;;;;;;;;;;;;;;5055286;28;8633;-83
2022/07/20 13:40:55;;;;;;;;;;;;;;;;;;5055609;28;7350;-84
2022/07/20 13:43:21;;;;;;;;;;;;;;;;;;5057441;28;8629;-85
2022/07/20 13:45:47;;;;;;;;;;;;;;;;;;5062594;28;8988;-85
2022/07/20 13:48:13;;;;;;;;;;;;;;;;;;5063053;28;7337;-79
2022/07/20 13:50:38;;;;;;;;;;;;;;;;;;5062003;28;8525;-85
2022/07/20 13:53:04;;;;;;;;;;;;;;;;;;5061014;28;8507;-86
2022/07/20 13:55:29;;;;;;;;;;;;;;;;;;5056158;28;8828;-82
2022/07/20 13:57:55;;;;;;;;;;;;;;;;;;5058607;28;7444;-79
2022/07/20 14:00:20;;;;;;;;;;;;;;;;;;5063426;28;7276;-79
2022/07/20 14:02:46;;;;;;;;;;;;;;;;;;5052853;28;8825;-84
2022/07/20 14:05:11;;;;;;;;;;;;;;;;;;5040890;28;7252;-83
2022/07/20 14:07:38;;;;;;;;;;;;;;;;;;5037268;28;7268;-84
2022/07/20 14:10:04;;;;;;;;;;;;;;;;;;5036184;28;8550;-86
2022/07/20 14:12:30;;;;;;;;;;;;;;;;;;5036476;28;8896;-85
2022/07/20 14:14:56;;;;;;;;;;;;;;;;;;5043386;28;8631;-78
2022/07/20 14:17:22;;;;;;;;;;;;;;;;;;5047484;28;8521;-79
2022/07/20 14:19:47;;;;;;;;;;;;;;;;;;5047759;28;8522;-80
2022/07/20 14:22:13;;;;;;;;;;;;;;;;;;5047599;28;8788;-77
2022/07/20 14:24:39;;;;;;;;;;;;;;;;;;5049033;28;8924;-79
2022/07/20 14:27:06;;;;;;;;;;;;;;;;;;5063413;28;7253;-79
2022/07/20 14:29:32;;;;;;;;;;;;;;;;;;5067196;28;9024;-79
2022/07/20 14:31:57;;;;;;;;;;;;;;;;;;5068397;28;8538;-78
2022/07/20 14:34:24;;;;;;;;;;;;;;;;;;5068036;28;8660;-78
2022/07/20 14:36:50;;;;;;;;;;;;;;;;;;5067853;28;8675;-79
2022/07/20 14:39:16;;;;;;;;;;;;;;;;;;5067954;28;7269;-78
2022/07/20 14:41:41;;;;;;;;;;;;;;;;;;5067836;28;8626;-79
2022/07/20 14:44:09;;;;;;;;;;;;;;;;;;5067945;28;8530;-79
2022/07/20 14:46:35;;;;;;;;;;;;;;;;;;5067961;28;8775;-79
2022/07/20 14:49:01;;;;;;;;;;;;;;;;;;5067304;28;7151;-78
2022/07/20 14:51:27;;;;;;;;;;;;;;;;;;5068151;28;8488;-78
2022/07/20 14:53:52;;;;;;;;;;;;;;;;;;5064740;28;7137;-78
2022/07/20 14:56:17;;;;;;;;;;;;;;;;;;5062406;28;8493;-78
2022/07/20 14:58:43;;;;;;;;;;;;;;;;;;5062625;28;8579;-78
2022/07/20 15:01:09;;;;;;;;;;;;;;;;;;5068924;28;8486;-79
2022/07/20 15:03:34;;;;;;;;;;;;;;;;;;5064974;28;8767;-79
2022/07/20 15:06:00;;;;;;;;;;;;;;;;;;5065712;28;8597;-83
2022/07/20 15:08:26;;;;;;;;;;;;;;;;;;5062102;28;8490;-84
2022/07/20 15:10:55;;;;;;;;;;;;;;;;;;5059615;28;8919;-78
2022/07/20 15:13:21;;;;;;;;;;;;;;;;;;5054757;28;8499;-78
2022/07/20 15:15:47;;;;;;;;;;;;;;;;;;5055128;28;7319;-89
2022/07/20 15:18:13;;;;;;;;;;;;;;;;;;5054930;28;8486;-86
2022/07/20 15:20:38;;;;;;;;;;;;;;;;;;5054630;28;8592;-86
2022/07/20 15:23:04;;;;;;;;;;;;;;;;;;5054723;28;8676;-88
2022/07/20 15:25:29;;;;;;;;;;;;;;;;;;5054020;28;8840;-88
2022/07/20 15:27:55;;;;;;;;;;;;;;;;;;5054434;28;8780;-89
2022/07/20 15:30:20;;;;;;;;;;;;;;;;;;5055138;28;8672;-90
2022/07/20 15:32:46;;;;;;;;;;;;;;;;;;5053766;28;8549;-87
2022/07/20 15:35:12;;;;;;;;;;;;;;;;;;5054664;28;8509;-88
2022/07/20 15:37:37;;;;;;;;;;;;;;;;;;5056702;28;9050;-88
2022/07/20 15:40:03;;;;;;;;;;;;;;;;;;5053711;28;8483;-88
2022/07/20 15:42:29;;;;;;;;;;;;;;;;;;5053856;28;8425;-88
2022/07/20 15:44:54;;;;;;;;;;;;;;;;;;5054172;28;8546;-89
2022/07/20 15:47:20;;;;;;;;;;;;;;;;;;5054355;28;8545;-89
2022/07/20 15:49:47;;;;;;;;;;;;;;;;;;5053999;28;8079;-88
2022/07/20 15:52:12;;;;;;;;;;;;;;;;;;5053879;28;9211;-89
2022/07/20 15:54:39;;;;;;;;;;;;;;;;;;5054169;28;8596;-88
2022/07/20 15:57:19;;;;;;;;;;;;;;;;;;5053424;28;9038;-87
2022/07/20 15:59:50;;;;;;;;;;;;;;;;;;5053917;28;7207;-88
2022/07/20 16:02:16;;;;;;;;;;;;;;;;;;5053875;28;8672;-87
2022/07/20 16:04:44;;;;;;;;;;;;;;;;;;5053875;28;8495;-88
2022/07/20 16:07:13;;;;;;;;;;;;;;;;;;5054357;28;7220;-87
2022/07/20 16:09:38;;;;;;;;;;;;;;;;;;5053902;28;8616;-88
2022/07/20 16:12:04;;;;;;;;;;;;;;;;;;5053566;28;7443;-88
2022/07/20 16:14:32;;;;;;;;;;;;;;;;;;5053823;28;8554;-87
2022/07/20 16:16:58;;;;;;;;;;;;;;;;;;5053619;28;8526;-89
2022/07/20 16:19:23;;;;;;;;;;;;;;;;;;5053537;28;8602;-89
2022/07/20 16:21:49;;;;;;;;;;;;;;;;;;5054403;28;8556;-89
2022/07/20 16:24:15;;;;;;;;;;;;;;;;;;5055243;28;9004;-89
2022/07/20 16:26:41;;;;;;;;;;;;;;;;;;5054220;28;8718;-89
2022/07/20 16:29:06;;;;;;;;;;;;;;;;;;5054092;28;8503;-89
2022/07/20 16:31:32;;;;;;;;;;;;;;;;;;5053673;28;7259;-88
2022/07/20 16:34:00;;;;;;;;;;;;;;;;;;5054124;28;8596;-88
2022/07/20 16:36:27;;;;;;;;;;;;;;;;;;5053622;28;8653;-88
2022/07/20 16:38:53;;;;;;;;;;;;;;;;;;5053633;28;8504;-87
2022/07/20 16:41:20;;;;;;;;;;;;;;;;;;5053943;28;8568;-88
2022/07/20 16:43:45;;;;;;;;;;;;;;;;;;5053286;28;8551;-87
2022/07/20 16:46:11;;;;;;;;;;;;;;;;;;5055129;28;7439;-89
2022/07/20 16:48:36;;;;;;;;;;;;;;;;;;5053271;28;7242;-87
2022/07/20 16:51:02;;;;;;;;;;;;;;;;;;5053270;28;8669;-88
2022/07/20 16:53:27;;;;;;;;;;;;;;;;;;5053153;28;8616;-87
2022/07/20 16:55:58;;;;;;;;;;;;;;;;;;5053226;28;8512;-86
2022/07/20 16:58:24;;;;;;;;;;;;;;;;;;5053287;28;8913;-88
2022/07/20 17:00:50;;;;;;;;;;;;;;;;;;5052354;28;8703;-89